Time;durP1;ratioP1;P1;durP2;ratioP2;P2;SDS_P1;SDS_P2;PMS_P1;PMS_P2;Temp;Humidity;BMP_temperature;BMP_pressure;BME280_temperature;BME280_humidity;BME280_pressure;Samples;Min_cycle;Max_cycle;Signal;HPM_P1;HPM_P2
2022/02/19 00:02:26;;;;;;;5.90;1.30;;;;;;;6.57;48.68;98876.58;108405;1273;61028;-77
2022/02/19 00:04:53;;;;;;;10.90;2.40;;;;;;;6.54;48.29;98870.61;108476;1273;60371;-78
2022/02/19 00:07:19;;;;;;;3.80;0.90;;;;;;;6.55;47.88;98861.95;108444;1273;59843;-76
2022/02/19 00:09:46;;;;;;;6.70;1.20;;;;;;;6.49;48.76;98849.19;108459;1273;72535;-77
2022/02/19 00:12:12;;;;;;;4.10;1.20;;;;;;;6.46;48.52;98868.91;108400;1274;59121;-78
2022/02/19 00:14:39;;;;;;;6.20;1.50;;;;;;;6.45;48.36;98898.76;108412;1273;59132;-77
2022/02/19 00:17:05;;;;;;;6.70;1.30;;;;;;;6.44;49.16;98869.60;108472;1274;61309;-77
2022/02/19 00:19:32;;;;;;;5.70;1.40;;;;;;;6.39;49.24;98879.35;108540;1273;76426;-77
2022/02/19 00:21:59;;;;;;;5.60;1.60;;;;;;;6.37;48.95;98880.86;108396;1274;72385;-77
2022/02/19 00:24:25;;;;;;;6.10;1.50;;;;;;;6.36;48.87;98880.98;108488;1273;72963;-77
2022/02/19 00:26:54;;;;;;;6.60;1.70;;;;;;;6.33;49.22;98865.98;108433;1274;61435;-77
2022/02/19 00:29:20;;;;;;;4.60;1.30;;;;;;;6.29;49.60;98883.38;108518;1273;61619;-76
2022/02/19 00:31:47;;;;;;;5.80;1.30;;;;;;;6.25;49.88;98871.80;108354;1273;76006;-76
2022/02/19 00:34:14;;;;;;;2.20;1.00;;;;;;;6.21;50.63;98868.41;108481;1273;71354;-77
2022/02/19 00:36:41;;;;;;;5.10;1.10;;;;;;;6.18;50.25;98871.09;108370;1274;72971;-75
2022/02/19 00:39:07;;;;;;;8.60;1.20;;;;;;;6.18;50.47;98892.48;108399;1273;60052;-77
2022/02/19 00:41:37;;;;;;;4.50;0.90;;;;;;;6.20;50.25;98939.58;108512;1273;60273;-78
2022/02/19 00:44:07;;;;;;;7.10;1.70;;;;;;;6.20;50.81;98897.88;108477;1274;74922;-76
2022/02/19 00:46:34;;;;;;;5.80;1.40;;;;;;;6.17;50.73;98902.77;108499;1273;72370;-80
2022/02/19 00:49:03;;;;;;;5.50;1.70;;;;;;;6.17;51.05;98904.05;108351;1274;73095;-78
2022/02/19 00:51:31;;;;;;;5.50;1.80;;;;;;;6.16;51.29;98926.97;108444;1273;60848;-77
2022/02/19 00:53:58;;;;;;;6.90;1.40;;;;;;;6.15;51.23;98929.03;108261;1274;60497;-79
2022/02/19 00:56:25;;;;;;;18.30;1.60;;;;;;;6.16;51.05;98924.54;108473;1273;74918;-77
2022/02/19 00:58:52;;;;;;;3.50;1.40;;;;;;;6.13;51.55;98907.10;108285;1273;70461;-76
2022/02/19 01:01:19;;;;;;;6.60;1.70;;;;;;;6.12;51.34;98925.86;108379;1273;73207;-78
2022/02/19 01:03:45;;;;;;;7.10;1.40;;;;;;;6.10;51.65;98941.48;108523;1273;60512;-75
2022/02/19 01:06:12;;;;;;;7.10;1.40;;;;;;;6.11;51.89;98939.13;108264;1274;60662;-76
2022/02/19 01:08:44;;;;;;;6.50;1.60;;;;;;;6.09;51.76;98955.96;108432;1275;73811;-77
2022/02/19 01:11:11;;;;;;;9.50;1.60;;;;;;;6.09;52.20;98938.50;108485;1273;59226;-76
2022/02/19 01:13:37;;;;;;;6.00;1.20;;;;;;;6.05;52.19;98955.46;108466;1273;72890;-77
2022/02/19 01:16:04;;;;;;;7.90;1.90;;;;;;;6.06;51.84;98962.52;108469;1273;59081;-77
2022/02/19 01:18:30;;;;;;;5.20;1.50;;;;;;;6.07;51.77;98971.33;108459;1274;60738;-76
2022/02/19 01:20:57;;;;;;;7.20;1.50;;;;;;;6.07;51.81;98956.42;108425;1273;74936;-77
2022/02/19 01:23:24;;;;;;;11.70;1.90;;;;;;;6.06;52.15;98978.65;108498;1273;71532;-76
2022/02/19 01:25:50;;;;;;;4.30;1.70;;;;;;;6.06;51.51;99008.71;108471;1272;59078;-77
2022/02/19 01:28:17;;;;;;;6.90;1.50;;;;;;;6.05;51.21;98986.73;108514;1273;59146;-77
2022/02/19 01:30:43;;;;;;;6.10;1.10;;;;;;;6.02;51.55;98999.56;108482;1273;59159;-77
2022/02/19 01:33:09;;;;;;;3.50;1.00;;;;;;;5.98;51.32;98996.42;108545;1273;59150;-76
2022/02/19 01:35:37;;;;;;;4.50;1.30;;;;;;;5.96;51.45;98993.16;108498;1273;58926;-77
2022/02/19 01:38:04;;;;;;;7.00;1.10;;;;;;;5.90;52.06;99030.25;108477;1273;73059;-78
2022/02/19 01:40:30;;;;;;;6.10;1.60;;;;;;;5.86;52.08;99062.34;108479;1273;59608;-78
2022/02/19 01:42:57;;;;;;;4.10;1.50;;;;;;;5.87;51.96;99020.53;108516;1273;60466;-78
2022/02/19 01:45:23;;;;;;;6.60;1.30;;;;;;;5.85;52.27;99028.30;108479;1273;59144;-76
2022/02/19 01:47:50;;;;;;;3.60;1.20;;;;;;;5.82;52.33;98974.97;108466;1274;59397;-78
2022/02/19 01:50:16;;;;;;;10.00;1.60;;;;;;;5.80;52.91;98994.46;108453;1274;59344;-77
2022/02/19 01:52:45;;;;;;;7.90;1.30;;;;;;;5.75;53.22;99008.98;108502;1273;59668;-76
2022/02/19 01:55:12;;;;;;;6.30;1.30;;;;;;;5.71;53.26;99010.39;108538;1273;62412;-77
2022/02/19 01:57:39;;;;;;;6.00;1.20;;;;;;;5.69;53.70;99004.66;108280;1276;76701;-77
2022/02/19 02:00:07;;;;;;;4.70;1.50;;;;;;;5.65;53.59;99037.09;108447;1273;71495;-78
2022/02/19 02:02:34;;;;;;;4.20;1.20;;;;;;;5.65;53.46;99050.15;108392;1274;72898;-78
2022/02/19 02:05:01;;;;;;;3.80;1.10;;;;;;;5.64;53.37;99025.89;108513;1273;61006;-76
2022/02/19 02:07:27;;;;;;;5.60;1.40;;;;;;;5.61;53.77;99051.54;108502;1273;60243;-77
2022/02/19 02:09:54;;;;;;;5.40;1.40;;;;;;;5.58;53.98;99006.92;108339;1275;59177;-77
2022/02/19 02:12:20;;;;;;;8.90;1.30;;;;;;;5.55;54.44;99023.43;108532;1273;71304;-76
2022/02/19 02:14:47;;;;;;;7.00;1.80;;;;;;;5.52;54.16;99029.39;108416;1273;59016;-78
2022/02/19 02:17:14;;;;;;;4.70;1.30;;;;;;;5.51;54.37;99051.71;108408;1274;62361;-77
2022/02/19 02:19:41;;;;;;;4.30;1.00;;;;;;;5.49;54.66;99057.40;108393;1274;60469;-76
2022/02/19 02:22:08;;;;;;;4.40;1.80;;;;;;;5.48;54.77;99041.92;108502;1274;59059;-77
2022/02/19 02:24:37;;;;;;;3.90;0.90;;;;;;;5.48;54.96;99020.44;108521;1273;72427;-76
2022/02/19 02:27:07;;;;;;;5.80;1.10;;;;;;;5.44;55.46;99065.94;108382;1274;72898;-77
2022/02/19 02:29:44;;;;;;;5.10;1.10;;;;;;;5.43;55.41;99026.84;108366;1274;59169;-76
2022/02/19 02:32:11;;;;;;;5.50;1.90;;;;;;;5.41;55.74;99048.98;108435;1274;59591;-77
2022/02/19 02:34:52;;;;;;;6.00;1.10;;;;;;;5.42;55.73;99039.76;108384;1274;74897;-78
2022/02/19 02:37:20;;;;;;;3.60;0.90;;;;;;;5.41;56.09;99044.77;108502;1273;71526;-78
2022/02/19 02:39:48;;;;;;;5.10;1.50;;;;;;;5.39;56.27;99055.11;108557;1273;74682;-76
2022/02/19 02:42:15;;;;;;;8.20;1.70;;;;;;;5.38;57.08;99066.63;108324;1274;60779;-77
2022/02/19 02:44:43;;;;;;;6.80;1.10;;;;;;;5.35;57.33;99078.61;108479;1274;60620;-76
2022/02/19 02:47:11;;;;;;;8.20;1.50;;;;;;;5.27;58.96;99068.91;108439;1273;75945;-78
2022/02/19 02:49:38;;;;;;;7.40;1.60;;;;;;;5.17;59.55;99066.98;108379;1274;71366;-77
2022/02/19 02:52:07;;;;;;;5.80;1.00;;;;;;;5.10;60.07;99086.01;108264;1275;73936;-76
2022/02/19 02:54:34;;;;;;;5.40;1.50;;;;;;;5.06;60.22;99118.77;108281;1275;59929;-77
2022/02/19 02:57:00;;;;;;;10.00;1.20;;;;;;;5.04;60.71;99130.39;108485;1274;60371;-77
2022/02/19 02:59:27;;;;;;;3.00;0.60;;;;;;;5.00;61.64;99111.93;108525;1274;74937;-81
2022/02/19 03:01:53;;;;;;;5.40;1.10;;;;;;;4.93;62.39;99154.98;108495;1273;71431;-77
2022/02/19 03:04:20;;;;;;;5.60;1.20;;;;;;;4.86;63.15;99171.45;108392;1274;60036;-78
2022/02/19 03:06:46;;;;;;;3.90;1.30;;;;;;;4.84;63.44;99144.60;108464;1274;59157;-77
2022/02/19 03:09:13;;;;;;;11.10;1.90;;;;;;;4.79;63.66;99180.83;108488;1274;59348;-78
2022/02/19 03:11:39;;;;;;;7.80;1.20;;;;;;;4.75;64.37;99172.04;108282;1274;75968;-77
2022/02/19 03:14:06;;;;;;;6.20;1.30;;;;;;;4.69;65.24;99193.73;108443;1274;59235;-77
2022/02/19 03:16:33;;;;;;;3.80;1.30;;;;;;;4.54;67.10;99206.78;108470;1273;59401;-78
2022/02/19 03:18:59;;;;;;;6.90;1.20;;;;;;;4.42;68.51;99206.25;108433;1274;61387;-78
2022/02/19 03:21:26;;;;;;;3.60;1.00;;;;;;;4.35;68.80;99199.50;108397;1274;60552;-76
2022/02/19 03:23:52;;;;;;;6.00;1.40;;;;;;;4.30;69.08;99218.06;108468;1274;59037;-78
2022/02/19 03:26:19;;;;;;;5.80;1.50;;;;;;;4.23;70.30;99226.33;108397;1274;72367;-77
2022/02/19 03:28:46;;;;;;;7.80;1.90;;;;;;;4.12;72.31;99269.17;108405;1274;74002;-77
2022/02/19 03:31:12;;;;;;;4.00;1.10;;;;;;;3.94;73.88;99228.13;108459;1273;61471;-76
2022/02/19 03:33:39;;;;;;;4.70;1.50;;;;;;;3.80;74.71;99237.37;108458;1274;59220;-77
2022/02/19 03:36:06;;;;;;;4.60;1.30;;;;;;;3.72;75.52;99266.79;108500;1274;59068;-77
2022/02/19 03:38:32;;;;;;;6.40;1.50;;;;;;;3.68;75.13;99252.80;108430;1274;71401;-76
2022/02/19 03:40:58;;;;;;;5.60;1.40;;;;;;;3.70;74.55;99276.92;108437;1274;59087;-78
2022/02/19 03:43:25;;;;;;;9.20;1.00;;;;;;;3.70;74.70;99261.87;108387;1274;59167;-76
2022/02/19 03:45:53;;;;;;;5.80;1.30;;;;;;;3.68;75.80;99275.58;108518;1273;61396;-78
2022/02/19 03:48:20;;;;;;;6.10;1.00;;;;;;;3.67;75.81;99291.54;108493;1274;73971;-78
2022/02/19 03:50:46;;;;;;;7.20;1.10;;;;;;;3.63;77.02;99284.47;108493;1273;59087;-78
2022/02/19 03:53:13;;;;;;;3.90;1.00;;;;;;;3.54;78.25;99288.92;108437;1274;59278;-77
2022/02/19 03:55:39;;;;;;;4.60;1.30;;;;;;;3.44;79.31;99284.40;108430;1274;58903;-77
2022/02/19 03:58:06;;;;;;;6.30;1.40;;;;;;;3.41;79.18;99315.21;108558;1274;59031;-78
2022/02/19 04:00:32;;;;;;;2.40;1.00;;;;;;;3.39;78.91;99313.44;108388;1274;59384;-78
2022/02/19 04:02:59;;;;;;;3.90;1.30;;;;;;;3.43;78.35;99343.23;108362;1274;72171;-78
2022/02/19 04:05:26;;;;;;;10.00;1.20;;;;;;;3.45;78.16;99350.77;108472;1274;59096;-77
2022/02/19 04:07:52;;;;;;;7.20;1.30;;;;;;;3.43;78.06;99375.70;108306;1274;61602;-77
2022/02/19 04:10:18;;;;;;;5.20;1.70;;;;;;;3.44;78.47;99376.36;108479;1274;59109;-76
2022/02/19 04:12:45;;;;;;;7.20;1.50;;;;;;;3.43;79.14;99379.96;108504;1274;59225;-77
2022/02/19 04:15:11;;;;;;;10.10;1.60;;;;;;;3.43;78.94;99402.30;108489;1274;59134;-76
2022/02/19 04:17:39;;;;;;;5.60;1.20;;;;;;;3.41;79.70;99414.23;108535;1274;59162;-78
2022/02/19 04:20:07;;;;;;;7.10;1.20;;;;;;;3.32;81.15;99446.44;108408;1274;61486;-79
2022/02/19 04:22:35;;;;;;;9.50;1.90;;;;;;;3.24;82.29;99431.55;108390;1274;60616;-78
2022/02/19 04:25:02;;;;;;;3.20;1.10;;;;;;;3.20;83.20;99425.50;108523;1273;76283;-78
2022/02/19 04:27:28;;;;;;;4.80;1.20;;;;;;;3.15;83.66;99442.05;108373;1274;72475;-78
2022/02/19 04:29:55;;;;;;;4.60;1.40;;;;;;;3.11;84.36;99441.13;108525;1272;59132;-77
2022/02/19 04:32:21;;;;;;;7.40;1.10;;;;;;;3.09;84.03;99449.34;108499;1274;59131;-78
2022/02/19 04:34:48;;;;;;;8.10;1.70;;;;;;;3.10;83.76;99461.20;108525;1273;60704;-77
2022/02/19 04:37:16;;;;;;;5.40;1.30;;;;;;;3.09;84.72;99444.52;108522;1273;75811;-78
2022/02/19 04:39:42;;;;;;;7.50;1.80;;;;;;;3.07;84.53;99453.59;108443;1273;72506;-78
2022/02/19 04:42:09;;;;;;;4.70;1.00;;;;;;;3.05;84.64;99461.44;108338;1274;59467;-78
2022/02/19 04:44:36;;;;;;;5.00;0.90;;;;;;;3.06;84.08;99482.15;108446;1273;59023;-77
2022/02/19 04:47:03;;;;;;;6.00;2.00;;;;;;;3.07;84.41;99465.45;108493;1273;60586;-78
2022/02/19 04:49:29;;;;;;;5.20;1.00;;;;;;;3.07;84.16;99488.50;108467;1274;74934;-78
2022/02/19 04:51:56;;;;;;;4.00;0.70;;;;;;;3.04;84.26;99476.27;108491;1274;59434;-77
2022/02/19 04:54:22;;;;;;;5.30;1.00;;;;;;;3.06;84.72;99502.20;108562;1273;73501;-78
2022/02/19 04:56:49;;;;;;;3.50;1.10;;;;;;;3.06;84.91;99505.34;108413;1273;59187;-78
2022/02/19 04:59:15;;;;;;;1.80;0.50;;;;;;;3.07;85.43;99496.39;108495;1273;59206;-77
2022/02/19 05:01:42;;;;;;;7.40;2.10;;;;;;;3.03;86.00;99501.65;108434;1274;76393;-78
2022/02/19 05:04:08;;;;;;;4.60;1.20;;;;;;;3.00;86.76;99512.29;108512;1273;71468;-78
2022/02/19 05:06:35;;;;;;;4.70;0.90;;;;;;;2.95;86.84;99526.27;108433;1273;59392;-77
2022/02/19 05:09:01;;;;;;;4.60;1.10;;;;;;;2.94;86.22;99531.05;108207;1276;60133;-79
2022/02/19 05:11:30;;;;;;;2.40;0.80;;;;;;;2.92;86.68;99528.60;108502;1273;59576;-77
2022/02/19 05:13:57;;;;;;;7.10;1.20;;;;;;;2.92;86.03;99557.61;108435;1276;73880;-78
2022/02/19 05:16:23;;;;;;;2.70;0.90;;;;;;;2.96;85.59;99531.50;108484;1273;59039;-77
2022/02/19 05:18:50;;;;;;;4.40;1.20;;;;;;;2.99;85.36;99541.35;108460;1274;59097;-77
2022/02/19 05:21:16;;;;;;;9.80;1.10;;;;;;;3.04;84.61;99574.94;108494;1273;59125;-78
2022/02/19 05:23:42;;;;;;;5.10;1.80;;;;;;;3.04;84.66;99559.13;108503;1274;59594;-78
2022/02/19 05:26:09;;;;;;;4.00;1.30;;;;;;;3.04;84.77;99567.58;108473;1273;60157;-79
2022/02/19 05:28:35;;;;;;;3.40;1.00;;;;;;;3.05;84.76;99573.38;108508;1273;59556;-78
2022/02/19 05:31:03;;;;;;;3.00;1.10;;;;;;;3.06;84.91;99620.16;108472;1273;59155;-80
2022/02/19 05:33:30;;;;;;;3.30;1.30;;;;;;;3.08;84.68;99602.83;108512;1273;62527;-78
2022/02/19 05:35:57;;;;;;;3.20;0.90;;;;;;;3.08;85.08;99615.96;108499;1273;60698;-78
2022/02/19 05:38:25;;;;;;;4.80;1.00;;;;;;;3.07;84.71;99620.03;108387;1274;75070;-78
2022/02/19 05:40:54;;;;;;;4.70;1.30;;;;;;;3.08;84.45;99618.19;108541;1273;72794;-79
2022/02/19 05:43:20;;;;;;;23.10;1.70;;;;;;;3.10;84.22;99624.79;108500;1273;72993;-80
2022/02/19 05:45:48;;;;;;;5.10;1.50;;;;;;;3.14;83.73;99626.47;108511;1273;59147;-78
2022/02/19 05:48:15;;;;;;;4.90;1.50;;;;;;;3.17;82.78;99627.21;108474;1274;60533;-79
2022/02/19 05:50:43;;;;;;;6.00;1.00;;;;;;;3.20;83.01;99635.19;108450;1273;75903;-78
2022/02/19 05:53:11;;;;;;;3.40;0.70;;;;;;;3.21;82.69;99627.13;108497;1273;72564;-78
2022/02/19 05:55:38;;;;;;;7.20;1.30;;;;;;;3.21;83.30;99640.30;108504;1273;72887;-78
2022/02/19 05:58:04;;;;;;;4.60;1.10;;;;;;;3.17;84.09;99672.64;108512;1273;62279;-78
2022/02/19 06:00:31;;;;;;;9.30;1.50;;;;;;;3.09;85.43;99676.08;108484;1273;62079;-78
2022/02/19 06:02:58;;;;;;;5.90;1.20;;;;;;;2.96;85.98;99671.59;108478;1274;75763;-77
2022/02/19 06:05:25;;;;;;;9.30;0.90;;;;;;;2.85;87.52;99663.92;108467;1273;72373;-78
2022/02/19 06:07:51;;;;;;;4.90;1.40;;;;;;;2.78;87.69;99705.96;108455;1273;73449;-76
2022/02/19 06:10:18;;;;;;;3.60;1.20;;;;;;;2.73;88.28;99695.30;108508;1273;59056;-77
2022/02/19 06:12:44;;;;;;;3.60;1.30;;;;;;;2.65;89.37;99705.15;108509;1273;61007;-77
2022/02/19 06:15:11;;;;;;;7.40;1.30;;;;;;;2.57;90.42;99693.20;108379;1274;75019;-77
2022/02/19 06:17:37;;;;;;;6.10;1.60;;;;;;;2.50;91.22;99725.11;108345;1273;59659;-77
2022/02/19 06:20:04;;;;;;;6.60;1.80;;;;;;;2.47;91.15;99724.40;108466;1274;59252;-77
2022/02/19 06:22:31;;;;;;;7.40;1.70;;;;;;;2.45;91.41;99715.09;108369;1273;61552;-78
2022/02/19 06:24:57;;;;;;;7.30;1.20;;;;;;;2.45;91.36;99729.45;108516;1273;58962;-76
2022/02/19 06:27:24;;;;;;;6.30;1.40;;;;;;;2.46;91.61;99733.84;108521;1273;59208;-76
2022/02/19 06:29:50;;;;;;;3.70;1.00;;;;;;;2.49;90.70;99756.31;108484;1273;72523;-76
2022/02/19 06:32:17;;;;;;;3.70;0.90;;;;;;;2.54;89.94;99765.02;108457;1273;59146;-77
2022/02/19 06:34:43;;;;;;;4.30;0.90;;;;;;;2.56;89.97;99747.86;108448;1273;59099;-75
2022/02/19 06:37:10;;;;;;;3.90;0.90;;;;;;;2.56;90.55;99772.86;108492;1274;60281;-76
2022/02/19 06:39:37;;;;;;;5.20;1.20;;;;;;;2.59;89.21;99760.92;108481;1264;74925;-76
2022/02/19 06:42:05;;;;;;;8.10;1.30;;;;;;;2.60;89.67;99765.15;108565;1271;59074;-76
2022/02/19 06:44:31;;;;;;;7.80;1.30;;;;;;;2.61;88.96;99777.31;108584;1271;72983;-77
2022/02/19 06:46:57;;;;;;;9.20;1.00;;;;;;;2.63;87.88;99781.91;108562;1271;59428;-76
2022/02/19 06:49:24;;;;;;;8.30;1.20;;;;;;;2.69;87.59;99777.75;108600;1271;59360;-77
2022/02/19 06:51:50;;;;;;;1.60;0.70;;;;;;;2.72;87.38;99774.48;108475;1274;59076;-75
2022/02/19 06:54:17;;;;;;;6.40;1.50;;;;;;;2.74;86.78;99784.65;108596;1271;59409;-77
2022/02/19 06:56:43;;;;;;;6.30;1.70;;;;;;;2.81;85.36;99790.34;108522;1271;59114;-77
2022/02/19 06:59:10;;;;;;;6.60;1.40;;;;;;;2.97;82.47;99810.86;108581;1271;59054;-77
2022/02/19 07:01:37;;;;;;;2.60;0.80;;;;;;;3.11;81.12;99803.61;108520;1271;60584;-77
2022/02/19 07:04:03;;;;;;;6.10;1.40;;;;;;;3.20;80.52;99804.94;108603;1271;59066;-78
2022/02/19 07:06:30;;;;;;;6.80;1.30;;;;;;;3.33;78.61;99819.51;108520;1271;71455;-76
2022/02/19 07:08:56;;;;;;;4.10;0.60;;;;;;;3.47;77.17;99815.97;108529;1271;72901;-78
2022/02/19 07:11:24;;;;;;;2.60;1.10;;;;;;;3.55;76.51;99838.80;108529;1271;59411;-78
2022/02/19 07:13:50;;;;;;;6.90;1.30;;;;;;;3.67;75.05;99834.13;108526;1273;60318;-78
2022/02/19 07:16:17;;;;;;;3.60;1.00;;;;;;;3.77;73.79;99852.52;108529;1271;75965;-78
2022/02/19 07:18:43;;;;;;;7.40;1.20;;;;;;;3.87;72.96;99863.65;108536;1273;59047;-77
2022/02/19 07:21:09;;;;;;;6.00;0.90;;;;;;;3.99;71.82;99869.05;108537;1273;58981;-79
2022/02/19 07:23:36;;;;;;;2.50;1.00;;;;;;;4.07;70.63;99863.17;108600;1269;59171;-78
2022/02/19 07:26:02;;;;;;;5.80;1.50;;;;;;;4.14;70.66;99870.98;108545;1271;58863;-79
2022/02/19 07:28:29;;;;;;;7.40;1.70;;;;;;;4.18;69.85;99886.64;108574;1271;59120;-77
2022/02/19 07:30:56;;;;;;;3.80;0.80;;;;;;;4.18;70.37;99878.05;108505;1273;70037;-77
2022/02/19 07:33:23;;;;;;;3.80;1.20;;;;;;;4.20;70.04;99885.21;108626;1271;72914;-77
2022/02/19 07:35:49;;;;;;;7.00;1.30;;;;;;;4.23;69.34;99886.27;108518;1271;59078;-77
2022/02/19 07:38:16;;;;;;;7.20;1.40;;;;;;;4.27;69.33;99901.30;108417;1271;59864;-77
2022/02/19 07:40:42;;;;;;;3.80;0.80;;;;;;;4.32;68.33;99909.74;108294;1271;236677;-79
2022/02/19 07:43:09;;;;;;;5.80;1.40;;;;;;;4.37;67.83;99923.63;108464;1273;60220;-78
2022/02/19 07:45:35;;;;;;;15.10;1.60;;;;;;;4.42;67.39;99915.06;108372;1271;59168;-79
2022/02/19 07:48:02;;;;;;;6.40;0.80;;;;;;;4.47;67.66;99920.66;108507;1272;58927;-80
2022/02/19 07:58:43;;;;;;;8.90;1.40;;;;;;;4.66;66.68;99956.73;108474;1272;74143;-79
2022/02/19 08:01:10;;;;;;;6.70;1.40;;;;;;;4.69;66.82;99959.23;108427;1273;59564;-79
2022/02/19 08:03:38;;;;;;;4.50;1.40;;;;;;;4.68;66.34;99978.80;108391;1272;62629;-81
2022/02/19 08:06:04;;;;;;;8.80;1.20;;;;;;;4.68;66.31;99973.64;108375;1273;74711;-81
2022/02/19 08:08:33;;;;;;;5.20;1.00;;;;;;;4.66;66.86;99986.30;108445;1271;72470;-78
2022/02/19 08:11:00;;;;;;;5.10;1.60;;;;;;;4.65;66.42;99994.15;108382;1273;73592;-77
2022/02/19 08:13:27;;;;;;;8.50;1.90;;;;;;;4.62;66.27;100015.83;108282;1272;59604;-81
2022/02/19 08:15:53;;;;;;;4.70;1.30;;;;;;;4.61;66.72;99997.02;108353;1273;60376;-78
2022/02/19 08:18:20;;;;;;;8.30;1.90;;;;;;;4.62;66.17;100008.30;108295;1273;74981;-79
2022/02/19 08:20:48;;;;;;;6.10;1.20;;;;;;;4.69;66.64;100009.11;108371;1273;72436;-78
2022/02/19 08:23:16;;;;;;;4.70;1.00;;;;;;;4.78;66.96;100024.71;108442;1271;73118;-80
2022/02/19 08:25:45;;;;;;;7.20;1.20;;;;;;;4.86;66.55;100029.88;108445;1269;59727;-80
2022/02/19 08:28:11;;;;;;;2.60;0.90;;;;;;;4.90;66.25;100030.58;108454;1271;60338;-79
2022/02/19 08:30:42;;;;;;;4.90;1.00;;;;;;;4.91;66.26;100039.02;108409;1273;75126;-79
2022/02/19 08:33:10;;;;;;;2.60;0.90;;;;;;;4.87;65.15;100042.73;108422;1273;71365;-79
2022/02/19 08:35:38;;;;;;;5.40;1.60;;;;;;;4.88;65.38;100069.75;108445;1273;72903;-80
2022/02/19 08:38:07;;;;;;;9.00;1.00;;;;;;;4.91;64.79;100108.63;108397;1271;59636;-79
2022/02/19 08:40:34;;;;;;;5.20;1.20;;;;;;;4.95;64.59;100093.84;108474;1273;60279;-78
2022/02/19 08:43:00;;;;;;;7.70;1.30;;;;;;;4.96;64.45;100070.27;108397;1272;76220;-78
2022/02/19 08:45:27;;;;;;;4.90;1.90;;;;;;;4.96;64.30;100069.05;108413;1273;59501;-79
2022/02/19 08:48:01;;;;;;;6.90;1.30;;;;;;;4.97;64.69;100080.13;108335;1273;59343;-78
2022/02/19 08:50:29;;;;;;;6.70;1.40;;;;;;;5.00;64.81;100085.27;108491;1271;59508;-76
2022/02/19 08:52:56;;;;;;;9.40;1.60;;;;;;;5.04;64.80;100106.06;108477;1271;60485;-75
2022/02/19 08:55:24;;;;;;;2.90;1.00;;;;;;;5.05;64.33;100099.86;108350;1271;73847;-78
2022/02/19 08:57:51;;;;;;;3.50;1.10;;;;;;;5.03;64.20;100113.67;108436;1271;72375;-77
2022/02/19 09:00:17;;;;;;;6.70;1.20;;;;;;;5.01;64.10;100128.02;108427;1273;72851;-76
2022/02/19 09:02:44;;;;;;;9.30;2.00;;;;;;;4.98;63.81;100112.59;108366;1273;59580;-76
2022/02/19 09:05:13;;;;;;;7.30;1.70;;;;;;;4.98;64.02;100110.91;108362;1273;60349;-76
2022/02/19 09:07:40;;;;;;;4.60;1.30;;;;;;;4.97;64.06;100131.12;108431;1271;76052;-78
2022/02/19 09:10:08;;;;;;;8.20;2.00;;;;;;;5.00;64.37;100120.73;108340;1273;71203;-78
2022/02/19 09:12:35;;;;;;;5.50;0.90;;;;;;;5.03;64.76;100120.58;108483;1271;73069;-79
2022/02/19 09:15:03;;;;;;;9.10;1.60;;;;;;;5.06;64.73;100135.26;108346;1273;59646;-78
2022/02/19 09:17:29;;;;;;;5.50;1.10;;;;;;;5.06;64.63;100146.90;108454;1271;60312;-77
2022/02/19 09:19:56;;;;;;;7.40;1.50;;;;;;;5.06;65.19;100141.08;108451;1273;74849;-77
2022/02/19 09:22:23;;;;;;;11.80;1.50;;;;;;;5.04;65.26;100148.69;108437;1271;70331;-78
2022/02/19 09:24:49;;;;;;;9.80;1.70;;;;;;;4.99;65.22;100168.29;108448;1273;59270;-78
2022/02/19 09:27:16;;;;;;;8.40;1.60;;;;;;;4.95;65.51;100172.30;108474;1273;60053;-78
2022/02/19 09:29:43;;;;;;;5.60;1.20;;;;;;;4.91;65.55;100171.45;108475;1273;58965;-76
2022/02/19 09:32:11;;;;;;;2.60;0.90;;;;;;;4.89;66.41;100167.61;108483;1273;76004;-77
2022/02/19 09:34:38;;;;;;;4.50;1.30;;;;;;;4.89;65.81;100181.61;108476;1271;71263;-78
2022/02/19 09:37:04;;;;;;;4.10;1.10;;;;;;;4.94;65.70;100176.86;108419;1271;59203;-78
2022/02/19 09:39:30;;;;;;;11.70;1.80;;;;;;;5.03;64.85;100184.00;108437;1273;59415;-77
2022/02/19 09:42:03;;;;;;;6.20;1.40;;;;;;;5.15;64.80;100177.02;108413;1273;59156;-78
2022/02/19 09:44:30;;;;;;;4.70;1.10;;;;;;;5.27;64.63;100183.70;108418;1273;76298;-78
2022/02/19 09:46:58;;;;;;;8.60;1.70;;;;;;;5.42;64.50;100194.33;108498;1272;72393;-78
2022/02/19 09:49:25;;;;;;;9.20;1.80;;;;;;;5.56;63.37;100192.19;108403;1273;72916;-76
2022/02/19 09:51:53;;;;;;;4.60;1.00;;;;;;;5.67;63.15;100198.27;108428;1273;59816;-79
2022/02/19 09:54:19;;;;;;;7.50;1.60;;;;;;;5.75;62.51;100209.63;108420;1273;59364;-78
2022/02/19 09:56:46;;;;;;;6.80;1.60;;;;;;;5.80;62.09;100202.55;108395;1271;59233;-79
2022/02/19 09:59:12;;;;;;;8.80;1.20;;;;;;;5.81;61.58;100213.04;108389;1273;59596;-79
2022/02/19 10:01:41;;;;;;;7.20;1.30;;;;;;;5.81;62.34;100203.39;108385;1273;59033;-78
2022/02/19 10:04:08;;;;;;;6.30;0.90;;;;;;;5.81;63.08;100215.53;108473;1273;59781;-78
2022/02/19 10:06:39;;;;;;;4.40;1.30;;;;;;;5.87;63.43;100227.01;108446;1273;60120;-78
2022/02/19 10:09:12;;;;;;;4.10;0.90;;;;;;;5.87;63.56;100246.23;108462;1273;75154;-78
2022/02/19 10:11:40;;;;;;;6.30;1.40;;;;;;;5.85;62.25;100242.95;108434;1273;72524;-77
2022/02/19 10:14:30;;;;;;;5.40;1.20;;;;;;;5.90;64.12;100241.54;108486;1271;72953;-79
2022/02/19 10:17:04;;;;;;;5.60;1.40;;;;;;;5.89;63.81;100237.32;108445;1272;59574;-78
2022/02/19 10:19:46;;;;;;;9.50;1.60;;;;;;;5.88;64.28;100239.55;108438;1273;61664;-76
2022/02/19 10:22:15;;;;;;;5.50;1.90;;;;;;;5.80;64.01;100280.89;108446;1273;75981;-76
2022/02/19 10:24:46;;;;;;;4.40;1.20;;;;;;;5.95;64.78;100266.23;108410;1273;72505;-77
2022/02/19 10:27:14;;;;;;;7.30;1.50;;;;;;;6.04;64.78;100267.19;108431;1273;74886;-77
2022/02/19 10:29:55;;;;;;;5.50;1.40;;;;;;;6.11;64.40;100286.52;108413;1273;59832;-77
2022/02/19 10:32:23;;;;;;;6.10;1.30;;;;;;;6.10;63.25;100287.13;108422;1271;61555;-77
2022/02/19 10:34:55;;;;;;;7.80;1.50;;;;;;;6.13;63.36;100289.30;108389;1273;73743;-76
2022/02/19 10:37:25;;;;;;;3.80;1.10;;;;;;;6.22;64.21;100282.93;108469;1272;72387;-77
2022/02/19 10:39:52;;;;;;;9.20;1.80;;;;;;;6.22;63.48;100314.01;108407;1273;73087;-78
2022/02/19 10:42:31;;;;;;;4.80;1.20;;;;;;;6.25;63.49;100292.52;108431;1273;60236;-77
2022/02/19 10:44:58;;;;;;;7.50;1.30;;;;;;;6.23;62.68;100301.08;108432;1273;60715;-77
2022/02/19 10:47:26;;;;;;;6.60;1.30;;;;;;;6.19;63.37;100316.16;108453;1273;74935;-78
2022/02/19 10:50:02;;;;;;;5.30;1.60;;;;;;;6.05;63.90;100318.70;108458;1273;71801;-78
2022/02/19 10:52:35;;;;;;;4.60;1.40;;;;;;;5.79;64.45;100316.58;108457;1273;72914;-78
2022/02/19 10:55:14;;;;;;;9.10;2.10;;;;;;;5.60;66.08;100311.37;108423;1273;60004;-77
2022/02/19 10:57:42;;;;;;;8.20;2.20;;;;;;;5.51;66.11;100323.23;108484;1271;60642;-78
2022/02/19 11:00:18;;;;;;;4.80;1.30;;;;;;;5.38;66.55;100333.63;108441;1273;73636;-78
2022/02/19 11:02:47;;;;;;;8.00;1.30;;;;;;;5.25;67.84;100326.25;108435;1273;72777;-77
2022/02/19 11:05:18;;;;;;;4.80;1.20;;;;;;;5.23;67.80;100332.04;108456;1273;72845;-78
2022/02/19 11:07:47;;;;;;;7.40;1.60;;;;;;;5.26;67.61;100317.71;108448;1271;61220;-78
2022/02/19 11:10:15;;;;;;;8.60;1.60;;;;;;;5.39;67.39;100319.12;108385;1273;60793;-76
2022/02/19 11:12:42;;;;;;;7.10;1.40;;;;;;;5.53;66.17;100334.01;108439;1273;76205;-77
2022/02/19 11:15:10;;;;;;;6.50;1.30;;;;;;;5.65;65.28;100322.13;108426;1273;70396;-78
2022/02/19 11:17:37;;;;;;;3.00;1.10;;;;;;;5.73;64.26;100323.45;108486;1273;73955;-76
2022/02/19 11:20:07;;;;;;;11.70;2.00;;;;;;;5.80;63.93;100331.37;108424;1273;60840;-78
2022/02/19 11:22:36;;;;;;;5.30;1.30;;;;;;;5.89;64.22;100315.23;108462;1273;61382;-77
2022/02/19 11:25:27;;;;;;;8.30;1.70;;;;;;;5.95;63.06;100321.08;108411;1273;76166;-78
2022/02/19 11:28:03;;;;;;;6.10;1.10;;;;;;;5.97;63.08;100322.90;108495;1273;71361;-77
2022/02/19 11:30:33;;;;;;;5.90;1.40;;;;;;;6.02;62.62;100318.46;108399;1272;73047;-79
2022/02/19 11:33:01;;;;;;;5.70;1.20;;;;;;;6.12;62.23;100336.59;108551;1273;59546;-78
2022/02/19 11:35:36;;;;;;;5.70;1.10;;;;;;;6.20;61.57;100316.66;108478;1271;61656;-78
2022/02/19 11:38:20;;;;;;;7.80;1.40;;;;;;;6.27;61.10;100321.05;108472;1273;74896;-78
2022/02/19 11:40:46;;;;;;;4.10;0.90;;;;;;;6.52;60.79;100320.81;108502;1271;72842;-79
2022/02/19 11:43:42;;;;;;;10.00;1.60;;;;;;;6.63;59.97;100315.85;108463;1273;59554;-76